Time;durP1;ratioP1;P1;durP2;ratioP2;P2;SDS_P1;SDS_P2;PMS_P1;PMS_P2;Temp;Humidity;BMP_temperature;BMP_pressure;BME280_temperature;BME280_humidity;BME280_pressure;Samples;Min_cycle;Max_cycle;Signal;HPM_P1;HPM_P2
2023/11/07 00:02:14;;;;;;;1.57;1.10;;;6.90;99.90;;;;;;5037171;28;20304;-68
2023/11/07 00:04:41;;;;;;;1.33;1.10;;;6.80;99.90;;;;;;5048069;28;20316;-68
2023/11/07 00:07:07;;;;;;;5.30;1.37;;;6.80;99.90;;;;;;5035084;28;20198;-68
2023/11/07 00:09:33;;;;;;;3.23;1.67;;;6.80;99.90;;;;;;5033579;28;20518;-67
2023/11/07 00:11:59;;;;;;;2.87;1.40;;;6.80;99.90;;;;;;5042068;28;20214;-69
2023/11/07 00:14:24;;;;;;;2.07;1.53;;;6.80;99.90;;;;;;5035085;28;20177;-68
2023/11/07 00:16:50;;;;;;;2.80;1.70;;;6.80;99.90;;;;;;5039564;28;20803;-68
2023/11/07 00:19:16;;;;;;;2.00;1.60;;;6.80;99.90;;;;;;5037641;28;20555;-68
2023/11/07 00:21:41;;;;;;;1.10;1.00;;;6.70;99.90;;;;;;5033515;28;20190;-68
2023/11/07 00:24:07;;;;;;;1.10;0.80;;;6.70;99.90;;;;;;5026404;28;20420;-68
2023/11/07 00:26:34;;;;;;;2.30;0.97;;;6.70;99.90;;;;;;5038467;28;21551;-68
2023/11/07 00:28:59;;;;;;;1.30;1.20;;;6.70;99.90;;;;;;5040201;28;20261;-68
2023/11/07 00:31:25;;;;;;;1.30;1.10;;;6.70;99.90;;;;;;5035414;28;20899;-68
2023/11/07 00:33:50;;;;;;;2.50;1.40;;;6.70;99.90;;;;;;5040735;28;20177;-68
2023/11/07 00:36:16;;;;;;;4.33;1.70;;;6.70;99.90;;;;;;5032490;28;20209;-68
2023/11/07 00:38:42;;;;;;;4.07;1.10;;;6.70;99.90;;;;;;5037626;28;20240;-68
2023/11/07 00:41:08;;;;;;;1.27;1.00;;;6.70;99.90;;;;;;5035820;28;20626;-68
2023/11/07 00:43:37;;;;;;;1.33;1.13;;;6.70;99.90;;;;;;5044929;28;20556;-68
2023/11/07 00:46:03;;;;;;;2.30;1.40;;;6.70;99.90;;;;;;5046229;28;20232;-68
2023/11/07 00:48:29;;;;;;;3.17;2.97;;;6.60;99.90;;;;;;5034332;28;20432;-68
2023/11/07 00:50:55;;;;;;;2.17;1.27;;;6.60;99.90;;;;;;5034142;28;20452;-68
2023/11/07 00:53:20;;;;;;;2.20;1.10;;;6.60;99.90;;;;;;5039834;28;20177;-68
2023/11/07 00:55:46;;;;;;;3.00;1.17;;;6.60;99.90;;;;;;5047507;28;20256;-68
2023/11/07 00:58:11;;;;;;;1.70;1.30;;;6.50;99.90;;;;;;5033967;28;20558;-68
2023/11/07 01:00:37;;;;;;;2.30;1.63;;;6.50;99.90;;;;;;5033089;28;20198;-68
2023/11/07 01:03:02;;;;;;;1.83;1.20;;;6.50;99.90;;;;;;5037439;28;20232;-68
2023/11/07 01:05:29;;;;;;;3.50;1.73;;;6.50;99.90;;;;;;5036857;28;20183;-68
2023/11/07 01:07:54;;;;;;;2.03;1.10;;;6.50;99.90;;;;;;5039201;28;20223;-68
2023/11/07 01:10:21;;;;;;;2.13;1.20;;;6.40;99.90;;;;;;5044330;28;20538;-68
2023/11/07 01:12:46;;;;;;;2.00;1.73;;;6.40;99.90;;;;;;5037264;28;20579;-68
2023/11/07 01:15:12;;;;;;;2.20;1.50;;;6.40;99.90;;;;;;5045575;28;20423;-68
2023/11/07 01:17:37;;;;;;;1.40;1.30;;;6.40;99.90;;;;;;5035983;28;20634;-68
2023/11/07 01:20:07;;;;;;;2.07;1.27;;;6.30;99.90;;;;;;5040275;28;20180;-68
2023/11/07 01:22:32;;;;;;;1.40;1.30;;;6.30;99.90;;;;;;5035948;28;20708;-68
2023/11/07 01:24:58;;;;;;;3.47;1.27;;;6.30;99.90;;;;;;5033401;28;20501;-67
2023/11/07 01:27:24;;;;;;;2.20;1.40;;;6.30;99.90;;;;;;5024607;28;20202;-68
2023/11/07 01:29:50;;;;;;;1.57;1.07;;;6.20;99.90;;;;;;5037027;28;20470;-68
2023/11/07 01:32:16;;;;;;;2.03;1.23;;;6.20;99.90;;;;;;5043899;28;20440;-68
2023/11/07 01:34:42;;;;;;;2.13;1.50;;;6.20;99.90;;;;;;5042350;28;20420;-68
2023/11/07 01:37:07;;;;;;;2.50;1.37;;;6.20;99.90;;;;;;5040434;28;20456;-68
2023/11/07 01:39:33;;;;;;;3.20;1.10;;;6.10;99.90;;;;;;5040558;28;20217;-68
2023/11/07 01:41:58;;;;;;;3.23;1.20;;;6.10;99.90;;;;;;5037684;28;20590;-68
2023/11/07 01:44:28;;;;;;;0.90;0.80;;;6.00;99.90;;;;;;5039890;28;20188;-68
2023/11/07 01:46:55;;;;;;;1.33;1.13;;;6.00;99.90;;;;;;5033237;28;20648;-68
2023/11/07 01:49:22;;;;;;;2.47;1.50;;;6.00;99.90;;;;;;5040672;28;20436;-68
2023/11/07 01:51:48;;;;;;;2.03;1.00;;;6.00;99.90;;;;;;5038785;28;20445;-68
2023/11/07 01:54:14;;;;;;;1.80;1.40;;;5.90;99.90;;;;;;5033074;28;20436;-68
2023/11/07 01:56:40;;;;;;;2.40;1.13;;;6.00;99.90;;;;;;5034651;28;20449;-68
2023/11/07 01:59:05;;;;;;;1.47;1.27;;;6.00;99.90;;;;;;5032879;28;20511;-67
2023/11/07 02:01:32;;;;;;;1.57;1.47;;;6.00;99.90;;;;;;5031013;28;22199;-68
2023/11/07 02:03:58;;;;;;;3.10;1.17;;;6.00;99.90;;;;;;5037581;28;20174;-68
2023/11/07 02:06:24;;;;;;;2.30;1.27;;;6.00;99.90;;;;;;5040625;28;20561;-67
2023/11/07 02:08:50;;;;;;;2.70;1.20;;;6.00;99.90;;;;;;5040325;28;20174;-68
2023/11/07 02:11:15;;;;;;;2.90;1.10;;;6.00;99.90;;;;;;5031913;28;20468;-68
2023/11/07 02:13:47;;;;;;;1.60;1.17;;;6.00;99.90;;;;;;5032043;28;20667;-68
2023/11/07 02:16:12;;;;;;;1.40;1.00;;;6.00;99.90;;;;;;5040713;28;20239;-68
2023/11/07 02:18:38;;;;;;;1.60;1.30;;;6.00;99.90;;;;;;5032764;28;20511;-68
2023/11/07 02:21:04;;;;;;;1.80;1.40;;;6.10;99.90;;;;;;5031414;28;20186;-68
2023/11/07 02:23:32;;;;;;;3.20;1.20;;;6.00;99.90;;;;;;5030926;28;20178;-68
2023/11/07 02:25:58;;;;;;;1.97;1.50;;;6.10;99.90;;;;;;5043255;28;20440;-68
2023/11/07 02:28:24;;;;;;;1.07;0.97;;;6.10;99.90;;;;;;5030845;28;20428;-68
2023/11/07 02:30:49;;;;;;;1.60;1.20;;;6.10;99.90;;;;;;5036671;28;20198;-68
2023/11/07 02:33:15;;;;;;;3.03;1.23;;;6.10;99.90;;;;;;5043658;28;20833;-68
2023/11/07 02:35:41;;;;;;;1.10;0.97;;;6.10;99.90;;;;;;5036655;28;20185;-68
2023/11/07 02:38:08;;;;;;;1.57;1.30;;;6.10;99.90;;;;;;5046348;28;20209;-68
2023/11/07 02:40:34;;;;;;;2.47;1.40;;;6.10;99.90;;;;;;5031523;28;20453;-68
2023/11/07 02:43:04;;;;;;;1.30;1.20;;;6.10;99.90;;;;;;5024741;28;20953;-68
2023/11/07 02:45:36;;;;;;;1.40;1.00;;;6.10;99.90;;;;;;5038449;28;20437;-68
2023/11/07 02:48:02;;;;;;;1.60;1.10;;;6.10;99.90;;;;;;5043918;28;20422;-67
2023/11/07 02:50:28;;;;;;;1.43;1.00;;;6.10;99.90;;;;;;5040829;28;21040;-68
2023/11/07 02:52:53;;;;;;;1.73;1.00;;;6.20;99.90;;;;;;5037948;28;20512;-68
2023/11/07 02:55:19;;;;;;;1.60;1.40;;;6.20;99.90;;;;;;5036831;28;20189;-68
2023/11/07 02:57:44;;;;;;;4.73;1.27;;;6.30;99.90;;;;;;5031942;28;20288;-68
2023/11/07 03:00:12;;;;;;;1.27;1.17;;;6.30;99.90;;;;;;5031928;28;20194;-68
2023/11/07 03:02:41;;;;;;;2.17;1.00;;;6.40;99.90;;;;;;5033544;28;20190;-67
2023/11/07 03:05:08;;;;;;;1.70;1.20;;;6.40;99.90;;;;;;5036269;28;20435;-68
2023/11/07 03:07:34;;;;;;;3.53;1.40;;;6.40;99.90;;;;;;5038596;28;20432;-67
2023/11/07 03:10:01;;;;;;;3.03;1.33;;;6.50;99.90;;;;;;5031956;28;20941;-67
2023/11/07 03:12:29;;;;;;;1.77;0.83;;;6.50;99.90;;;;;;5036574;28;20451;-67
2023/11/07 03:14:55;;;;;;;4.67;1.40;;;6.40;99.90;;;;;;5035532;28;20441;-68
2023/11/07 03:17:23;;;;;;;1.80;0.90;;;6.40;99.90;;;;;;5039444;28;20495;-67
2023/11/07 03:19:51;;;;;;;3.07;1.10;;;6.40;99.90;;;;;;5040000;28;20495;-67
2023/11/07 03:22:19;;;;;;;6.53;1.27;;;6.40;99.90;;;;;;5030514;28;20499;-67
2023/11/07 03:24:45;;;;;;;1.20;1.10;;;6.40;99.90;;;;;;5038074;28;20480;-68
2023/11/07 03:27:11;;;;;;;2.10;1.10;;;6.40;99.90;;;;;;5044112;28;20416;-67
2023/11/07 03:29:36;;;;;;;2.50;1.07;;;6.30;99.90;;;;;;5035729;28;20433;-67
2023/11/07 03:32:02;;;;;;;1.57;1.20;;;6.30;99.90;;;;;;5034846;28;20914;-67
2023/11/07 03:34:27;;;;;;;1.20;0.90;;;6.30;99.90;;;;;;5044798;28;20170;-68
2023/11/07 03:36:53;;;;;;;1.13;0.93;;;6.30;99.90;;;;;;5040714;28;20181;-67
2023/11/07 03:39:19;;;;;;;2.00;0.83;;;6.30;99.90;;;;;;5043828;28;20170;-67
2023/11/07 03:41:46;;;;;;;3.50;1.00;;;6.30;99.90;;;;;;5035535;28;20198;-67
2023/11/07 03:44:11;;;;;;;1.30;1.00;;;6.30;99.90;;;;;;5034885;28;20174;-67
2023/11/07 03:46:37;;;;;;;2.53;1.20;;;6.30;99.90;;;;;;5040954;28;20574;-68
2023/11/07 03:49:03;;;;;;;10.73;1.30;;;6.30;99.90;;;;;;5045829;28;20180;-68
2023/11/07 03:51:29;;;;;;;1.03;0.90;;;6.30;99.90;;;;;;5043846;28;20202;-67
2023/11/07 03:53:54;;;;;;;1.53;1.00;;;6.20;99.90;;;;;;5052561;28;20716;-68
2023/11/07 03:56:20;;;;;;;1.20;1.10;;;6.20;99.90;;;;;;5052353;28;20664;-67
2023/11/07 03:58:45;;;;;;;1.30;0.90;;;6.20;99.90;;;;;;5034516;28;20201;-68
2023/11/07 04:01:11;;;;;;;1.00;0.90;;;6.10;99.90;;;;;;5040370;28;20198;-68
2023/11/07 04:03:36;;;;;;;1.13;1.03;;;6.10;99.90;;;;;;5044745;28;20169;-68
2023/11/07 04:06:02;;;;;;;1.10;1.00;;;6.10;99.90;;;;;;5043882;28;20266;-68
2023/11/07 04:08:28;;;;;;;1.23;0.80;;;6.00;99.90;;;;;;5040517;28;20178;-68
2023/11/07 04:10:53;;;;;;;0.97;0.97;;;6.00;99.90;;;;;;5042555;28;20237;-68
2023/11/07 04:13:19;;;;;;;1.47;1.37;;;6.00;99.90;;;;;;5049392;28;20178;-68
2023/11/07 04:15:45;;;;;;;1.10;1.00;;;6.00;99.90;;;;;;5038313;28;20206;-68
2023/11/07 04:18:11;;;;;;;1.30;0.93;;;6.00;99.90;;;;;;5044104;28;20505;-68
2023/11/07 04:20:37;;;;;;;4.10;1.20;;;5.90;99.90;;;;;;5043036;28;20247;-67
2023/11/07 04:23:02;;;;;;;3.93;1.00;;;5.90;99.90;;;;;;5042215;28;20174;-68
2023/11/07 04:25:28;;;;;;;1.40;1.20;;;5.90;99.90;;;;;;5033628;28;20515;-67
2023/11/07 04:27:56;;;;;;;2.10;1.00;;;5.90;99.90;;;;;;5042573;28;20170;-68
2023/11/07 04:30:22;;;;;;;3.10;0.90;;;5.90;99.90;;;;;;5038618;28;20480;-67
2023/11/07 04:32:48;;;;;;;1.80;1.00;;;6.00;99.90;;;;;;5044751;28;20472;-68
2023/11/07 04:35:15;;;;;;;1.80;1.20;;;6.00;99.90;;;;;;5033362;28;20932;-68
2023/11/07 04:37:42;;;;;;;1.50;0.80;;;6.00;99.90;;;;;;5029690;28;20701;-67
2023/11/07 04:40:08;;;;;;;1.20;1.10;;;6.00;99.90;;;;;;5046056;28;20444;-68
2023/11/07 04:42:34;;;;;;;1.00;1.00;;;6.00;99.90;;;;;;5045173;28;20424;-68
2023/11/07 04:45:00;;;;;;;0.80;0.80;;;6.00;99.90;;;;;;5030935;28;20429;-68
2023/11/07 04:47:25;;;;;;;2.10;1.90;;;5.90;99.90;;;;;;5042957;28;20174;-67
2023/11/07 04:49:51;;;;;;;1.40;1.13;;;5.90;99.90;;;;;;5039223;28;20199;-68
2023/11/07 04:52:16;;;;;;;1.37;1.03;;;5.90;99.90;;;;;;5034441;28;20640;-68
2023/11/07 04:54:42;;;;;;;0.90;0.80;;;5.90;99.90;;;;;;5033719;28;20178;-68
2023/11/07 04:57:08;;;;;;;1.80;1.20;;;5.90;99.90;;;;;;5032179;28;20184;-67
2023/11/07 04:59:34;;;;;;;8.30;1.40;;;5.90;99.90;;;;;;5042495;28;20737;-67
2023/11/07 05:02:00;;;;;;;1.60;1.00;;;5.90;99.90;;;;;;5033791;28;20778;-68
2023/11/07 05:04:25;;;;;;;3.37;1.10;;;5.90;99.90;;;;;;5032088;28;20442;-68
2023/11/07 05:06:51;;;;;;;3.17;1.00;;;5.90;99.90;;;;;;5041310;28;20444;-67
2023/11/07 05:09:17;;;;;;;0.93;0.93;;;5.90;99.90;;;;;;5042217;28;20185;-67
2023/11/07 05:11:43;;;;;;;2.30;0.80;;;5.90;99.90;;;;;;5049016;22;20222;-71
2023/11/07 05:14:09;;;;;;;2.70;0.90;;;5.90;99.90;;;;;;5026968;28;20417;-71
2023/11/07 05:16:39;;;;;;;1.20;1.10;;;5.90;99.90;;;;;;5041685;28;20197;-70
2023/11/07 05:19:07;;;;;;;4.37;1.73;;;5.90;99.90;;;;;;5028800;28;20452;-69
2023/11/07 05:21:34;;;;;;;4.53;1.00;;;5.90;99.90;;;;;;5040177;28;20814;-70
2023/11/07 05:23:59;;;;;;;3.33;0.90;;;5.90;99.90;;;;;;5037984;28;20842;-70
2023/11/07 05:26:25;;;;;;;3.17;1.30;;;5.90;99.90;;;;;;5030421;28;20437;-70
2023/11/07 05:28:50;;;;;;;1.00;0.90;;;5.80;99.90;;;;;;5041187;28;20221;-70
2023/11/07 05:31:16;;;;;;;6.10;1.00;;;5.80;99.90;;;;;;5043253;28;20609;-70
2023/11/07 05:33:44;;;;;;;1.40;0.90;;;5.80;99.90;;;;;;5038582;28;20185;-70
2023/11/07 05:36:09;;;;;;;3.63;1.17;;;5.80;99.90;;;;;;5046849;28;20185;-70
2023/11/07 05:38:35;;;;;;;1.67;1.10;;;5.80;99.90;;;;;;5034154;28;20935;-70
2023/11/07 05:41:00;;;;;;;2.10;1.10;;;5.80;99.90;;;;;;5046699;28;20229;-70
2023/11/07 05:43:26;;;;;;;2.43;1.10;;;5.80;99.90;;;;;;5036720;28;20181;-70
2023/11/07 05:45:52;;;;;;;1.87;1.20;;;5.70;99.90;;;;;;5038885;28;20182;-70
2023/11/07 05:48:23;;;;;;;2.23;1.70;;;5.70;99.90;;;;;;5043368;28;20189;-70
2023/11/07 05:50:48;;;;;;;1.30;1.20;;;5.70;99.90;;;;;;5047065;28;20197;-70
2023/11/07 05:53:14;;;;;;;2.70;1.60;;;5.70;99.90;;;;;;5039340;28;20456;-70
2023/11/07 05:55:39;;;;;;;3.80;1.50;;;5.70;99.90;;;;;;5050011;28;20188;-70
2023/11/07 05:58:07;;;;;;;2.07;1.50;;;5.70;99.90;;;;;;5044748;28;20206;-70
2023/11/07 06:00:33;;;;;;;3.40;1.37;;;5.70;99.90;;;;;;5040977;28;20667;-70
2023/11/07 06:02:59;;;;;;;2.63;1.00;;;5.70;99.90;;;;;;5029219;28;20467;-70
2023/11/07 06:05:24;;;;;;;1.87;1.70;;;5.70;99.90;;;;;;5033843;28;20469;-70
2023/11/07 06:07:55;;;;;;;1.93;1.70;;;5.60;99.90;;;;;;5041438;28;20179;-70
2023/11/07 06:10:21;;;;;;;1.53;1.43;;;5.60;99.90;;;;;;5050391;28;20177;-70
2023/11/07 06:12:46;;;;;;;1.43;1.33;;;5.60;99.90;;;;;;5038194;28;20502;-70
2023/11/07 06:15:12;;;;;;;1.93;1.80;;;5.50;99.90;;;;;;5039300;28;20437;-70
2023/11/07 06:17:38;;;;;;;2.33;1.57;;;5.50;99.90;;;;;;5033602;28;20206;-70
2023/11/07 06:20:04;;;;;;;2.30;1.80;;;5.50;99.90;;;;;;5041030;28;20637;-70
2023/11/07 06:22:29;;;;;;;3.03;1.83;;;5.50;99.90;;;;;;5029867;28;20277;-70
2023/11/07 06:24:55;;;;;;;2.17;1.97;;;5.50;99.90;;;;;;5040339;28;21040;-70
2023/11/07 06:27:20;;;;;;;2.10;1.70;;;5.50;99.90;;;;;;5049230;28;20181;-70
2023/11/07 06:29:46;;;;;;;1.70;1.43;;;5.50;99.90;;;;;;5036915;28;20182;-70
2023/11/07 06:32:13;;;;;;;2.70;2.30;;;5.50;99.90;;;;;;5036133;28;20190;-70
2023/11/07 06:34:40;;;;;;;4.57;2.63;;;5.50;99.90;;;;;;5032336;28;20550;-72
2023/11/07 06:37:06;;;;;;;2.63;1.80;;;5.50;99.90;;;;;;5035600;28;20936;-72
2023/11/07 06:39:32;;;;;;;1.50;1.40;;;5.50;99.90;;;;;;5044007;28;20456;-72
2023/11/07 06:41:58;;;;;;;2.07;1.87;;;5.50;99.90;;;;;;5044886;28;20452;-72
2023/11/07 06:44:23;;;;;;;10.50;4.93;;;5.50;99.90;;;;;;5042214;28;20173;-72
2023/11/07 06:46:51;;;;;;;3.03;2.10;;;5.50;99.90;;;;;;5033565;28;20186;-72
2023/11/07 06:49:17;;;;;;;2.10;1.73;;;5.60;99.90;;;;;;5042400;28;20182;-70
2023/11/07 06:51:43;;;;;;;2.00;1.80;;;5.60;99.90;;;;;;5043851;28;20466;-70
2023/11/07 06:54:09;;;;;;;3.67;1.83;;;5.60;99.90;;;;;;5033822;28;20437;-71
2023/11/07 06:56:34;;;;;;;2.50;2.30;;;5.70;99.90;;;;;;5039656;28;20173;-71
2023/11/07 06:59:00;;;;;;;2.23;2.13;;;6.10;99.90;;;;;;5029787;28;20194;-70
2023/11/07 07:01:28;;;;;;;10.03;1.90;;;6.60;99.90;;;;;;5041235;28;20559;-70
2023/11/07 07:03:53;;;;;;;3.53;1.90;;;6.80;99.90;;;;;;5051753;28;20169;-71
2023/11/07 07:06:21;;;;;;;4.40;2.60;;;6.80;99.90;;;;;;5036759;28;20420;-70
2023/11/07 07:08:46;;;;;;;3.67;1.73;;;6.80;99.90;;;;;;5040763;28;20260;-71
2023/11/07 07:11:12;;;;;;;2.23;2.03;;;6.70;99.90;;;;;;5047625;28;20479;-71
2023/11/07 07:13:38;;;;;;;3.70;1.80;;;6.60;99.90;;;;;;5046470;28;20182;-68
2023/11/07 07:16:05;;;;;;;3.87;1.83;;;6.50;99.90;;;;;;5032552;28;20178;-69
2023/11/07 07:18:31;;;;;;;6.73;2.40;;;6.60;99.90;;;;;;5035356;28;20232;-69
2023/11/07 07:20:57;;;;;;;1.67;1.53;;;6.90;99.90;;;;;;5043948;28;20459;-69
2023/11/07 07:23:24;;;;;;;1.60;1.50;;;7.40;99.90;;;;;;5032954;28;20533;-68
2023/11/07 07:25:51;;;;;;;2.43;1.97;;;7.80;99.90;;;;;;5038080;28;20439;-68
2023/11/07 07:28:19;;;;;;;1.43;1.30;;;8.10;99.90;;;;;;5038920;28;20820;-69
2023/11/07 07:30:45;;;;;;;2.43;1.93;;;8.10;99.90;;;;;;5034927;28;20444;-69
2023/11/07 07:33:11;;;;;;;2.53;1.33;;;8.50;99.90;;;;;;5031578;28;20423;-71
2023/11/07 07:35:37;;;;;;;1.30;1.20;;;8.80;99.90;;;;;;5031701;28;20174;-70
2023/11/07 07:38:03;;;;;;;3.47;1.60;;;9.00;99.90;;;;;;5033045;28;20206;-66
2023/11/07 07:40:30;;;;;;;2.60;1.23;;;9.40;99.90;;;;;;5035865;28;20436;-68
2023/11/07 07:42:58;;;;;;;1.10;1.00;;;9.70;99.90;;;;;;5035689;28;20667;-69
2023/11/07 07:45:29;;;;;;;4.40;1.73;;;9.80;99.90;;;;;;5030145;28;20520;-70
2023/11/07 07:47:56;;;;;;;6.33;1.10;;;9.50;99.90;;;;;;5037070;28;20528;-68
2023/11/07 07:50:22;;;;;;;1.73;1.33;;;9.00;99.90;;;;;;5029693;28;20432;-69
2023/11/07 07:52:54;;;;;;;1.27;1.17;;;8.70;99.90;;;;;;5037610;28;20435;-69
2023/11/07 07:55:19;;;;;;;2.03;1.23;;;8.70;99.90;;;;;;5040274;28;20201;-70
2023/11/07 07:57:45;;;;;;;2.83;1.50;;;8.80;99.90;;;;;;5025904;28;21237;-69
2023/11/07 08:00:14;;;;;;;2.10;1.03;;;9.10;99.90;;;;;;5032051;28;20214;-69
2023/11/07 08:02:50;;;;;;;1.20;1.10;;;9.40;99.90;;;;;;5024811;28;20181;-69
2023/11/07 08:05:17;;;;;;;3.27;1.20;;;9.70;99.90;;;;;;5032596;28;20440;-71
2023/11/07 08:07:44;;;;;;;2.53;1.07;;;9.80;99.90;;;;;;5034170;28;20436;-69
2023/11/07 08:10:16;;;;;;;3.27;1.27;;;9.60;99.90;;;;;;5039292;28;20437;-69
2023/11/07 08:12:42;;;;;;;2.70;1.77;;;9.60;99.90;;;;;;5033423;28;20731;-69
2023/11/07 08:15:09;;;;;;;2.00;1.20;;;9.60;99.90;;;;;;5044426;28;20885;-69
2023/11/07 08:17:35;;;;;;;2.73;1.10;;;9.60;99.90;;;;;;5037406;28;20460;-69
2023/11/07 08:20:14;;;;;;;2.57;1.17;;;9.60;99.90;;;;;;5040421;28;20429;-69
2023/11/07 08:22:43;;;;;;;3.50;1.40;;;9.60;99.90;;;;;;5035544;28;20443;-69
2023/11/07 08:25:12;;;;;;;2.70;1.17;;;9.80;99.90;;;;;;5041281;28;20444;-69
2023/11/07 08:27:42;;;;;;;2.33;1.67;;;9.90;99.90;;;;;;5036439;28;20441;-69
2023/11/07 08:30:16;;;;;;;1.40;1.27;;;10.50;99.90;;;;;;5047728;28;20471;-69
2023/11/07 08:32:43;;;;;;;1.30;1.20;;;10.70;99.90;;;;;;5028176;28;20463;-68
2023/11/07 08:35:15;;;;;;;2.20;1.13;;;10.70;99.90;;;;;;5039213;28;20431;-68
2023/11/07 08:37:49;;;;;;;1.27;1.17;;;10.70;99.90;;;;;;5039294;28;20491;-69
2023/11/07 08:40:21;;;;;;;2.40;1.03;;;10.50;99.90;;;;;;5037712;28;20797;-68
2023/11/07 08:42:48;;;;;;;3.03;1.10;;;10.30;99.90;;;;;;5040790;28;20437;-68
2023/11/07 08:45:15;;;;;;;1.50;1.13;;;10.20;99.90;;;;;;5041027;28;20502;-68
2023/11/07 08:47:46;;;;;;;1.30;1.20;;;10.20;99.90;;;;;;5044655;28;20809;-68
2023/11/07 08:50:12;;;;;;;2.07;0.87;;;10.40;99.90;;;;;;5039409;28;20447;-69
2023/11/07 08:52:41;;;;;;;3.03;1.77;;;10.60;99.90;;;;;;5043492;28;20511;-70
2023/11/07 08:55:16;;;;;;;3.63;1.37;;;10.70;99.90;;;;;;5033537;28;20528;-68
2023/11/07 08:57:49;;;;;;;1.37;1.27;;;10.80;99.90;;;;;;5041557;28;20964;-68
2023/11/07 09:00:21;;;;;;;1.47;1.37;;;11.50;99.90;;;;;;5040764;28;20436;-68
2023/11/07 09:02:48;;;;;;;2.50;1.07;;;11.60;99.90;;;;;;5046866;28;20837;-69
2023/11/07 09:05:14;;;;;;;5.10;1.30;;;11.40;99.90;;;;;;5040466;28;20446;-68
2023/11/07 09:07:39;;;;;;;1.25;1.00;;;11.40;99.90;;;;;;5038020;28;20433;-69
2023/11/07 09:10:06;;;;;;;3.13;1.40;;;11.20;99.90;;;;;;5037227;28;20182;-68
2023/11/07 09:12:31;;;;;;;1.30;1.10;;;11.30;99.90;;;;;;5038055;28;20272;-69
2023/11/07 09:14:57;;;;;;;1.50;1.40;;;11.30;99.90;;;;;;5036319;28;20440;-68
2023/11/07 09:17:23;;;;;;;2.80;0.90;;;11.30;99.90;;;;;;5035872;28;20189;-71
2023/11/07 09:19:48;;;;;;;4.80;1.20;;;11.20;99.90;;;;;;5039921;28;20586;-68
2023/11/07 09:22:14;;;;;;;1.23;0.90;;;11.30;99.90;;;;;;5042071;28;20212;-68
2023/11/07 09:24:39;;;;;;;2.17;1.00;;;11.50;99.90;;;;;;5042990;28;20170;-68
2023/11/07 09:27:09;;;;;;;1.53;1.43;;;11.50;99.90;;;;;;5036025;28;20187;-68
2023/11/07 09:29:37;;;;;;;1.27;1.00;;;11.60;99.90;;;;;;5039690;28;20238;-69
2023/11/07 09:32:06;;;;;;;1.00;0.90;;;11.70;99.90;;;;;;5046199;28;20906;-69
2023/11/07 09:34:31;;;;;;;1.20;1.10;;;11.70;99.90;;;;;;5034903;28;20432;-68
2023/11/07 09:36:58;;;;;;;1.50;1.40;;;11.90;99.90;;;;;;5043394;28;20428;-68
2023/11/07 09:39:26;;;;;;;1.93;1.10;;;12.00;99.90;;;;;;5034474;28;20601;-68
2023/11/07 09:41:52;;;;;;;3.00;1.30;;;12.20;99.90;;;;;;5034786;28;20965;-68
2023/11/07 09:44:17;;;;;;;3.30;1.83;;;12.10;99.90;;;;;;5047595;28;20431;-69
2023/11/07 09:46:44;;;;;;;1.20;1.10;;;12.40;99.90;;;;;;5040801;28;20441;-69
2023/11/07 09:49:12;;;;;;;3.27;1.20;;;12.40;99.90;;;;;;5038922;28;20682;-68
2023/11/07 09:51:39;;;;;;;1.20;1.10;;;12.40;99.90;;;;;;5035395;28;20455;-69
2023/11/07 09:54:07;;;;;;;2.77;1.10;;;12.70;99.90;;;;;;5041371;28;21009;-69
2023/11/07 09:56:42;;;;;;;2.13;1.60;;;13.00;99.90;;;;;;5046681;28;20443;-69
2023/11/07 09:59:14;;;;;;;3.07;1.40;;;12.80;99.90;;;;;;5039503;28;20856;-69
2023/11/07 10:01:39;;;;;;;1.30;1.20;;;12.90;99.90;;;;;;5026140;28;20453;-69
2023/11/07 10:04:06;;;;;;;1.63;1.53;;;13.00;99.90;;;;;;5045515;28;20436;-69
2023/11/07 10:06:31;;;;;;;1.33;0.90;;;13.10;99.90;;;;;;5034699;28;20206;-68
2023/11/07 10:08:57;;;;;;;1.80;1.33;;;12.80;99.90;;;;;;5044623;28;20469;-68
2023/11/07 10:11:22;;;;;;;1.00;0.83;;;12.70;99.90;;;;;;5034040;28;20694;-69
2023/11/07 10:14:02;;;;;;;2.30;1.10;;;12.90;99.90;;;;;;5043653;28;20552;-69
2023/11/07 10:16:40;;;;;;;1.63;0.90;;;13.00;99.90;;;;;;5049112;28;20515;-69
2023/11/07 10:19:07;;;;;;;1.63;0.90;;;13.60;99.90;;;;;;5038826;28;20502;-70
2023/11/07 10:21:34;;;;;;;1.07;0.90;;;15.00;99.90;;;;;;5036446;28;20460;-69
2023/11/07 10:24:00;;;;;;;1.47;1.37;;;16.10;99.90;;;;;;5032819;28;20437;-69
2023/11/07 10:26:26;;;;;;;0.90;0.90;;;15.80;99.90;;;;;;5042363;28;20471;-74
2023/11/07 10:29:14;;;;;;;1.63;1.00;;;16.30;99.90;;;;;;5039320;28;20435;-74
2023/11/07 10:31:43;;;;;;;1.00;0.90;;;16.10;99.90;;;;;;5036003;28;20511;-68
2023/11/07 10:34:17;;;;;;;1.40;1.10;;;14.70;99.90;;;;;;5030125;28;20791;-70
2023/11/07 10:36:44;;;;;;;1.43;0.93;;;14.00;99.90;;;;;;5031888;28;20429;-70
2023/11/07 10:39:17;;;;;;;4.67;1.20;;;13.80;99.90;;;;;;5040422;28;20471;-70
2023/11/07 10:41:44;;;;;;;2.40;1.03;;;13.70;99.90;;;;;;5025784;28;20832;-71
2023/11/07 10:44:25;;;;;;;2.30;1.17;;;13.50;99.90;;;;;;5033624;28;20873;-70
2023/11/07 10:46:53;;;;;;;1.37;1.10;;;13.20;99.90;;;;;;5039231;28;20424;-70
2023/11/07 10:49:19;;;;;;;2.47;2.27;;;13.10;99.90;;;;;;5052330;28;20785;-70
2023/11/07 10:51:45;;;;;;;1.80;1.37;;;13.30;99.90;;;;;;5035044;28;20487;-70
2023/11/07 10:54:13;;;;;;;1.20;1.10;;;13.40;99.90;;;;;;5043127;28;20427;-70
2023/11/07 10:56:41;;;;;;;1.20;1.10;;;14.00;99.90;;;;;;5043011;28;21153;-71
2023/11/07 10:59:11;;;;;;;1.10;1.10;;;14.30;99.90;;;;;;5037009;28;20989;-71
2023/11/07 11:01:40;;;;;;;53.63;13.83;;;14.00;99.90;;;;;;5030830;28;20452;-70
2023/11/07 11:04:08;;;;;;;4.50;3.10;;;13.30;99.90;;;;;;5036008;28;20546;-70
2023/11/07 11:06:36;;;;;;;6.93;2.93;;;12.70;99.90;;;;;;5041967;28;20432;-71
2023/11/07 11:09:10;;;;;;;3.03;1.27;;;12.30;99.90;;;;;;5050348;28;20515;-70
2023/11/07 11:11:37;;;;;;;2.50;1.80;;;12.00;99.90;;;;;;5059990;22;20877;-69
2023/11/07 11:14:08;;;;;;;1.77;1.20;;;11.60;99.90;;;;;;5009468;28;20441;-68
2023/11/07 11:16:37;;;;;;;7.17;2.93;;;11.20;99.90;;;;;;5024489;28;20424;-69
2023/11/07 11:19:34;;;;;;;1.27;0.90;;;11.00;99.90;;;;;;5017953;28;21007;-68
2023/11/07 11:22:34;;;;;;;3.87;1.20;;;11.00;99.90;;;;;;5030406;28;20440;-68
2023/11/07 11:25:08;;;;;;;6.00;3.20;;;11.10;99.90;;;;;;5026090;28;20482;-68
2023/11/07 11:27:42;;;;;;;6.77;2.07;;;10.90;99.90;;;;;;5034456;28;20412;-68
2023/11/07 11:30:09;;;;;;;5.73;4.43;;;10.80;99.90;;;;;;5021502;28;20839;-69
2023/11/07 11:32:37;;;;;;;1.77;1.20;;;10.80;99.90;;;;;;5020861;28;20460;-69
2023/11/07 11:35:21;;;;;;;2.47;1.00;;;10.80;99.90;;;;;;5030267;28;20830;-68
2023/11/07 11:38:27;;;;;;;1.60;1.40;;;10.70;99.90;;;;;;5026462;28;20457;-69
2023/11/07 11:40:57;;;;;;;4.50;2.40;;;10.90;99.90;;;;;;5036739;28;20478;-69
2023/11/07 11:43:25;;;;;;;7.17;2.57;;;11.30;99.90;;;;;;5026916;28;20458;-69
2023/11/07 11:45:51;;;;;;;1.17;1.00;;;12.40;99.90;;;;;;5031961;28;20864;-69
2023/11/07 11:48:19;;;;;;;3.70;2.20;;;13.40;99.90;;;;;;5041066;28;20462;-69
2023/11/07 11:50:46;;;;;;;2.17;1.30;;;14.50;99.90;;;;;;5039412;28;20425;-69
2023/11/07 11:53:33;;;;;;;1.93;1.47;;;15.00;99.90;;;;;;5035001;28;20421;-69
2023/11/07 11:55:59;;;;;;;1.60;1.30;;;14.90;99.90;;;;;;5042055;28;20450;-70
2023/11/07 11:58:31;;;;;;;2.40;1.40;;;15.40;99.90;;;;;;5033601;28;20468;-69
2023/11/07 12:01:00;;;;;;;1.73;1.03;;;14.40;99.90;;;;;;5036222;28;20273;-70
2023/11/07 12:03:35;;;;;;;1.27;1.07;;;14.00;99.90;;;;;;5041418;28;20463;-69
2023/11/07 12:06:05;;;;;;;2.40;0.97;;;13.90;99.90;;;;;;5033711;28;20431;-70
2023/11/07 12:08:35;;;;;;;1.27;1.17;;;14.30;99.90;;;;;;5034147;28;20444;-70
2023/11/07 12:11:02;;;;;;;1.70;1.23;;;14.60;99.90;;;;;;5040291;28;20999;-70
2023/11/07 12:13:31;;;;;;;2.20;1.90;;;14.80;99.90;;;;;;5035231;28;20957;-70
2023/11/07 12:16:13;;;;;;;2.77;0.80;;;14.70;99.90;;;;;;5033248;28;20432;-70
2023/11/07 12:18:44;;;;;;;1.73;1.00;;;14.60;99.90;;;;;;5033920;28;20461;-70
2023/11/07 12:21:10;;;;;;;1.33;1.23;;;16.10;99.90;;;;;;5041047;28;20486;-70
2023/11/07 12:23:36;;;;;;;1.53;1.13;;;17.30;99.90;;;;;;5041165;28;20468;-70
2023/11/07 12:26:03;;;;;;;1.00;0.90;;;18.40;99.90;;;;;;5031392;28;20660;-70
2023/11/07 12:28:28;;;;;;;0.90;0.80;;;18.40;99.90;;;;;;5033277;28;20433;-70
2023/11/07 12:30:55;;;;;;;0.90;0.70;;;16.80;99.90;;;;;;5030559;28;20433;-69
2023/11/07 12:33:21;;;;;;;1.57;1.33;;;15.60;99.90;;;;;;5034905;28;20209;-69
2023/11/07 12:35:56;;;;;;;0.90;0.90;;;14.90;99.90;;;;;;5032836;28;20467;-69
2023/11/07 12:38:22;;;;;;;1.00;0.90;;;15.70;99.90;;;;;;5034985;28;20509;-70
2023/11/07 12:40:48;;;;;;;1.17;0.60;;;16.40;99.90;;;;;;5040370;28;20448;-70
2023/11/07 12:43:15;;;;;;;3.03;1.53;;;15.80;99.90;;;;;;5039211;28;20955;-69
2023/11/07 12:45:42;;;;;;;1.90;1.20;;;15.10;99.90;;;;;;5033297;28;20855;-74
2023/11/07 12:48:13;;;;;;;1.00;1.00;;;14.30;99.90;;;;;;5036416;28;20436;-69
2023/11/07 12:50:43;;;;;;;6.13;3.07;;;13.50;99.90;;;;;;5040778;28;20968;-73
2023/11/07 12:53:09;;;;;;;0.80;0.80;;;13.30;99.90;;;;;;5039883;28;20456;-70
2023/11/07 12:55:37;;;;;;;0.60;0.60;;;13.10;99.90;;;;;;5040924;28;20451;-69